createdAt,value
2022-12-27T00:00:48.659Z,35.17
2022-12-27T00:03:50.810Z,36.10
2022-12-27T00:06:52.899Z,33.40
2022-12-27T00:09:55.658Z,34.10
2022-12-27T00:12:57.779Z,33.90
2022-12-27T00:16:08.511Z,33.05
2022-12-27T00:19:10.815Z,33.40
2022-12-27T00:22:13.111Z,31.20
2022-12-27T00:25:15.295Z,33.58
2022-12-27T00:28:17.851Z,32.58
2022-12-27T00:31:21.410Z,31.77
2022-12-27T00:34:23.587Z,29.23
2022-12-27T00:37:25.748Z,31.55
2022-12-27T00:40:27.888Z,35.28
2022-12-27T00:43:29.979Z,33.92
2022-12-27T00:46:32.147Z,33.37
2022-12-27T00:49:36.600Z,32.65
2022-12-27T00:52:44.581Z,33.47
2022-12-27T00:55:46.700Z,31.63
2022-12-27T00:58:52.330Z,34.37
2022-12-27T01:01:54.732Z,31.08
2022-12-27T01:04:57.510Z,33.05
2022-12-27T01:07:59.724Z,29.00
2022-12-27T01:11:02.125Z,30.70
2022-12-27T01:14:04.734Z,33.58
2022-12-27T01:17:08.113Z,34.22
2022-12-27T01:20:10.375Z,31.58
2022-12-27T01:23:12.489Z,29.17
2022-12-27T01:26:16.320Z,31.73
2022-12-27T01:29:18.526Z,30.75
2022-12-27T01:32:20.672Z,31.30
2022-12-27T01:35:22.893Z,29.70
2022-12-27T01:38:25.120Z,28.17
2022-12-27T01:42:07.471Z,28.10
2022-12-27T01:45:12.426Z,26.50
2022-12-27T01:48:14.536Z,26.85
2022-12-27T01:51:17.364Z,28.37
2022-12-27T01:54:19.497Z,29.15
2022-12-27T01:57:22.060Z,29.52
2022-12-27T02:00:24.230Z,28.58
2022-12-27T02:03:33.032Z,29.67
2022-12-27T02:06:36.424Z,34.93
2022-12-27T02:09:41.520Z,30.98
2022-12-27T02:12:43.757Z,34.92
2022-12-27T02:15:45.913Z,31.30
2022-12-27T02:18:48.083Z,30.10
2022-12-27T02:22:07.795Z,29.10
2022-12-27T02:25:21.978Z,29.52
2022-12-27T02:28:32.933Z,30.70
2022-12-27T02:31:41.191Z,29.77
2022-12-27T02:34:59.351Z,29.17
2022-12-27T02:38:04.590Z,29.60
2022-12-27T02:41:46.579Z,30.70
2022-12-27T02:45:18.011Z,31.15
2022-12-27T02:48:38.676Z,30.25
2022-12-27T02:52:05.593Z,27.63
2022-12-27T02:55:26.729Z,26.35
2022-12-27T02:58:39.168Z,24.77
2022-12-27T03:02:15.252Z,26.65
2022-12-27T03:05:36.076Z,25.50
2022-12-27T03:08:47.335Z,26.57
2022-12-27T03:12:11.166Z,25.00
2022-12-27T03:15:40.660Z,25.30
2022-12-27T03:19:15.365Z,27.55
2022-12-27T03:22:37.176Z,27.77
2022-12-27T03:25:40.436Z,29.60
2022-12-27T03:29:03.203Z,27.90
2022-12-27T03:32:27.233Z,28.67
2022-12-27T03:35:31.004Z,26.65
2022-12-27T03:38:36.594Z,24.53
2022-12-27T03:41:59.430Z,26.50
2022-12-27T03:45:01.752Z,23.77
2022-12-27T03:48:05.157Z,23.88
2022-12-27T03:51:07.799Z,24.70
2022-12-27T03:54:17.243Z,27.98
2022-12-27T03:57:21.129Z,27.75
2022-12-27T04:00:24.964Z,27.92
2022-12-27T04:03:27.462Z,25.60
2022-12-27T04:06:29.688Z,27.70
2022-12-27T04:09:50.355Z,26.67
2022-12-27T04:13:11.143Z,26.83
2022-12-27T04:16:31.878Z,25.15
2022-12-27T04:19:52.746Z,27.80
2022-12-27T04:23:13.801Z,25.40
2022-12-27T04:26:34.382Z,25.30
2022-12-27T04:29:55.297Z,24.52
2022-12-27T04:33:16.112Z,24.97
2022-12-27T04:36:20.081Z,23.95
2022-12-27T04:39:25.119Z,26.88
2022-12-27T04:42:46.107Z,25.50
2022-12-27T04:46:07.021Z,24.43
2022-12-27T04:49:31.042Z,23.97
2022-12-27T04:52:52.086Z,23.35
2022-12-27T04:55:54.199Z,25.77
2022-12-27T04:59:15.856Z,28.27
2022-12-27T05:02:18.752Z,33.27
2022-12-27T05:05:21.274Z,28.60
2022-12-27T05:08:43.625Z,26.27
2022-12-27T05:12:21.235Z,36.53
2022-12-27T05:15:23.398Z,23.85
2022-12-27T05:18:26.804Z,23.63
2022-12-27T05:21:28.984Z,22.02
2022-12-27T05:24:49.909Z,27.52
2022-12-27T05:27:52.055Z,27.92
2022-12-27T05:30:54.342Z,30.00
2022-12-27T05:33:56.948Z,25.37
2022-12-27T05:36:59.084Z,29.48
2022-12-27T05:40:01.204Z,24.60
2022-12-27T05:43:04.387Z,20.90
2022-12-27T05:46:10.908Z,20.67
2022-12-27T05:49:13.121Z,20.95
2022-12-27T05:52:15.330Z,21.48
2022-12-27T05:55:17.710Z,19.77
2022-12-27T05:58:19.802Z,20.30
2022-12-27T06:01:21.978Z,22.33
2022-12-27T06:04:24.197Z,26.05
2022-12-27T06:07:26.324Z,33.25
2022-12-27T06:10:28.504Z,26.43
2022-12-27T06:13:30.730Z,23.27
2022-12-27T06:16:32.885Z,23.88
2022-12-27T06:19:35.071Z,20.70
2022-12-27T06:22:37.172Z,22.63
2022-12-27T06:25:39.339Z,25.02
2022-12-27T06:28:41.657Z,23.42
2022-12-27T06:31:44.971Z,22.47
2022-12-27T06:34:47.142Z,28.90
2022-12-27T06:37:49.224Z,37.70
2022-12-27T06:40:51.372Z,34.38
2022-12-27T06:43:54.583Z,24.63
2022-12-27T06:46:56.862Z,19.38
2022-12-27T06:49:58.978Z,32.80
2022-12-27T06:53:01.106Z,28.38
2022-12-27T06:56:07.777Z,36.13
2022-12-27T06:59:09.925Z,40.23
2022-12-27T07:02:12.209Z,53.63
2022-12-27T07:05:14.497Z,41.92
2022-12-27T07:08:16.844Z,32.83
2022-12-27T07:11:19.568Z,31.13
2022-12-27T07:14:21.817Z,39.00
2022-12-27T07:17:24.007Z,33.83
2022-12-27T07:20:26.104Z,61.70
2022-12-27T07:23:28.149Z,64.13
2022-12-27T07:26:30.871Z,33.53
2022-12-27T07:29:33.093Z,35.42
2022-12-27T07:32:35.194Z,34.07
2022-12-27T07:35:42.102Z,31.35
2022-12-27T07:38:47.490Z,30.00
2022-12-27T07:41:49.859Z,32.10
2022-12-27T07:44:53.905Z,28.63
2022-12-27T07:47:56.844Z,26.90
2022-12-27T07:51:00.225Z,26.60
2022-12-27T07:54:02.689Z,24.52
2022-12-27T07:57:04.792Z,33.50
2022-12-27T08:00:07.420Z,31.30
2022-12-27T08:03:14.226Z,41.75
2022-12-27T08:06:24.658Z,66.28
2022-12-27T08:09:29.451Z,59.07
2022-12-27T08:12:31.588Z,35.47
2022-12-27T08:15:33.783Z,27.83
2022-12-27T08:18:35.877Z,30.17
2022-12-27T08:21:38.356Z,34.00
2022-12-27T08:24:41.677Z,35.78
2022-12-27T08:27:43.779Z,34.72
2022-12-27T08:30:46.658Z,49.13
2022-12-27T08:33:52.418Z,47.50
2022-12-27T08:36:57.324Z,41.28
2022-12-27T08:40:02.850Z,20.65
2022-12-27T08:43:05.936Z,21.13
2022-12-27T08:46:09.631Z,24.13
2022-12-27T08:49:13.129Z,26.88
2022-12-27T08:52:15.571Z,30.98
2022-12-27T08:55:17.890Z,33.03
2022-12-27T08:58:19.997Z,25.92
2022-12-27T09:01:22.611Z,31.92
2022-12-27T09:04:24.883Z,22.35
2022-12-27T09:07:27.082Z,22.07
2022-12-27T09:10:29.220Z,23.90
2022-12-27T09:13:32.057Z,21.17
2022-12-27T09:16:34.344Z,22.70
2022-12-27T09:19:36.545Z,21.25
2022-12-27T09:22:39.165Z,22.97
2022-12-27T09:25:41.731Z,17.80
2022-12-27T09:28:44.427Z,4.22
2022-12-27T09:31:46.611Z,1.95
2022-12-27T09:34:48.722Z,3.75
2022-12-27T09:37:51.658Z,1.60
2022-12-27T09:40:55.468Z,1.05
2022-12-27T09:44:13.263Z,1.25
2022-12-27T09:47:17.427Z,0.93
2022-12-27T09:50:42.591Z,0.65
2022-12-27T09:53:51.330Z,1.80
2022-12-27T09:57:18.896Z,1.35
2022-12-27T10:00:19.727Z,1.90
2022-12-27T10:03:36.646Z,1.50
2022-12-27T10:06:52.677Z,3.47
2022-12-27T10:10:05.544Z,1.93
2022-12-27T10:13:10.589Z,1.90
2022-12-27T10:16:15.971Z,2.30
2022-12-27T10:19:27.709Z,1.60
2022-12-27T10:22:33.712Z,1.30
2022-12-27T10:25:36.370Z,3.33
2022-12-27T10:28:53.147Z,7.95
2022-12-27T10:32:00.200Z,6.68
2022-12-27T10:35:03.034Z,7.35
2022-12-27T10:38:09.717Z,10.70
2022-12-27T10:41:30.449Z,6.17
2022-12-27T10:44:32.788Z,5.45
2022-12-27T10:47:34.989Z,9.73
2022-12-27T10:50:37.933Z,11.23
2022-12-27T10:53:46.341Z,6.68
2022-12-27T10:56:48.613Z,6.07
2022-12-27T11:00:20.408Z,5.25
2022-12-27T11:03:23.007Z,9.55
2022-12-27T11:06:25.925Z,8.52
2022-12-27T11:09:35.705Z,11.95
2022-12-27T11:12:38.195Z,7.47
2022-12-27T11:15:42.020Z,5.97
2022-12-27T11:18:46.207Z,5.82
2022-12-27T11:21:49.029Z,6.85
2022-12-27T11:24:53.988Z,3.70
2022-12-27T11:28:20.724Z,5.40
2022-12-27T11:31:40.406Z,5.93
2022-12-27T11:34:45.168Z,2.55
2022-12-27T11:37:48.460Z,2.72
2022-12-27T11:41:03.245Z,5.30
2022-12-27T11:44:08.565Z,3.17
2022-12-27T11:47:19.920Z,4.25
2022-12-27T11:50:28.479Z,2.72
2022-12-27T11:53:39.563Z,3.78
2022-12-27T11:56:45.337Z,3.13
2022-12-27T11:59:47.633Z,2.70
2022-12-27T12:02:59.520Z,3.92
2022-12-27T12:06:27.828Z,3.65
2022-12-27T12:09:42.750Z,3.45
2022-12-27T12:12:45.380Z,4.05
2022-12-27T12:15:47.521Z,2.40
2022-12-27T12:18:57.095Z,4.18
2022-12-27T12:22:17.743Z,4.22
2022-12-27T12:25:22.978Z,4.40
2022-12-27T12:28:56.290Z,3.80
2022-12-27T12:31:47.285Z,4.40
2022-12-27T12:35:08.293Z,3.90
2022-12-27T12:38:24.772Z,7.00
2022-12-27T12:41:33.116Z,4.47
2022-12-27T12:44:41.732Z,5.65
2022-12-27T12:47:53.445Z,3.63
2022-12-27T12:51:14.529Z,5.13
2022-12-27T12:54:19.858Z,2.72
2022-12-27T12:57:34.839Z,3.35
2022-12-27T13:00:40.097Z,3.10
2022-12-27T13:04:11.739Z,2.73
2022-12-27T13:07:19.686Z,5.53
2022-12-27T13:10:25.110Z,2.58
2022-12-27T13:13:30.324Z,2.20
2022-12-27T13:16:35.325Z,4.22
2022-12-27T13:19:59.005Z,2.10
2022-12-27T13:23:17.888Z,1.98
2022-12-27T13:26:35.370Z,2.20
2022-12-27T13:29:40.616Z,3.40
2022-12-27T13:32:48.516Z,1.40
2022-12-27T13:36:05.491Z,3.43
2022-12-27T13:39:07.650Z,2.67
2022-12-27T13:42:28.626Z,4.40
2022-12-27T13:45:49.956Z,4.80
2022-12-27T13:48:58.256Z,2.10
2022-12-27T13:52:29.579Z,3.57
2022-12-27T13:55:37.821Z,5.13
2022-12-27T13:58:48.614Z,3.80
2022-12-27T14:01:53.902Z,4.60
2022-12-27T14:04:59.507Z,9.32
2022-12-27T14:08:20.236Z,10.80
2022-12-27T14:11:35.502Z,8.48
2022-12-27T14:14:39.496Z,6.57
2022-12-27T14:17:53.790Z,3.10
2022-12-27T14:21:15.181Z,4.75
2022-12-27T14:24:26.820Z,8.17
2022-12-27T14:27:28.970Z,7.28
2022-12-27T14:30:50.253Z,8.00
2022-12-27T14:33:52.399Z,5.93
2022-12-27T14:37:13.700Z,2.63
2022-12-27T14:40:35.185Z,3.63
2022-12-27T14:43:40.488Z,6.95
2022-12-27T14:47:01.730Z,4.93
2022-12-27T14:50:23.985Z,6.00
2022-12-27T14:53:35.555Z,6.57
2022-12-27T14:56:55.916Z,7.10
2022-12-27T15:00:04.940Z,7.40
2022-12-27T15:03:20.976Z,7.10
2022-12-27T15:06:31.444Z,9.63
2022-12-27T15:09:50.380Z,7.72
2022-12-27T15:12:55.625Z,14.27
2022-12-27T15:15:57.998Z,28.20
2022-12-27T15:19:15.242Z,17.33
2022-12-27T15:22:17.318Z,14.68
2022-12-27T15:25:25.737Z,6.03
2022-12-27T15:28:27.931Z,4.50
2022-12-27T15:31:33.159Z,3.58
2022-12-27T15:34:38.648Z,3.08
2022-12-27T15:37:55.940Z,3.22
2022-12-27T15:41:06.974Z,3.83
2022-12-27T15:44:19.734Z,5.07
2022-12-27T15:47:27.712Z,5.70
2022-12-27T15:50:29.862Z,6.20
2022-12-27T15:53:38.435Z,6.10
2022-12-27T15:56:52.805Z,7.63
2022-12-27T16:00:13.860Z,15.57
2022-12-27T16:03:31.741Z,13.80
2022-12-27T16:06:34.036Z,9.20
2022-12-27T16:09:37.423Z,9.27
2022-12-27T16:12:39.979Z,5.28
2022-12-27T16:15:47.801Z,4.15
2022-12-27T16:18:50.208Z,4.25
2022-12-27T16:21:52.389Z,4.70
2022-12-27T16:24:54.760Z,6.22
2022-12-27T16:28:07.766Z,6.50
2022-12-27T16:31:11.845Z,5.53
2022-12-27T16:34:34.487Z,6.63
2022-12-27T16:37:44.672Z,21.80
2022-12-27T16:40:50.552Z,12.23
2022-12-27T16:44:02.254Z,7.93
2022-12-27T16:47:10.012Z,17.90
2022-12-27T16:50:25.312Z,27.93
2022-12-27T16:53:36.307Z,19.38
2022-12-27T16:56:39.018Z,7.47
2022-12-27T17:00:00.003Z,7.00
2022-12-27T17:03:31.749Z,3.37
2022-12-27T17:06:36.815Z,4.68
2022-12-27T17:09:40.516Z,4.07
2022-12-27T17:12:53.537Z,5.97
2022-12-27T17:16:01.838Z,6.53
2022-12-27T17:19:05.519Z,8.52
2022-12-27T17:22:12.158Z,9.32
2022-12-27T17:25:15.731Z,10.17
2022-12-27T17:28:22.417Z,12.30
2022-12-27T17:31:30.410Z,14.88
2022-12-27T17:34:32.642Z,15.15
2022-12-27T17:37:43.961Z,24.30
2022-12-27T17:40:52.023Z,25.00
2022-12-27T17:44:22.515Z,12.98
2022-12-27T17:47:43.208Z,12.05
2022-12-27T17:50:46.467Z,3.57
2022-12-27T17:54:08.206Z,3.20
2022-12-27T17:57:31.609Z,6.63
2022-12-27T18:00:35.883Z,3.63
2022-12-27T18:03:46.028Z,7.10
2022-12-27T18:06:48.273Z,9.80
2022-12-27T18:09:54.538Z,3.30
2022-12-27T18:12:58.587Z,3.53
2022-12-27T18:16:03.700Z,3.30
2022-12-27T18:19:06.203Z,3.73
2022-12-27T18:22:17.446Z,3.83
2022-12-27T18:25:27.077Z,6.13
2022-12-27T18:28:33.819Z,5.47
2022-12-27T18:31:47.896Z,5.87
2022-12-27T18:34:52.770Z,6.30
2022-12-27T18:37:55.106Z,8.38
2022-12-27T18:40:59.123Z,10.38
2022-12-27T18:44:01.784Z,8.50
2022-12-27T18:47:04.736Z,6.93
2022-12-27T18:50:15.612Z,4.97
2022-12-27T18:53:25.599Z,6.50
2022-12-27T18:56:32.789Z,8.57
2022-12-27T18:59:36.136Z,10.30
2022-12-27T19:02:38.686Z,7.50
2022-12-27T19:05:56.062Z,6.90
2022-12-27T19:08:58.476Z,5.07
2022-12-27T19:12:02.509Z,3.83
2022-12-27T19:15:14.441Z,3.13
2022-12-27T19:18:21.408Z,3.23
2022-12-27T19:21:34.478Z,3.47
2022-12-27T19:24:36.734Z,4.30
2022-12-27T19:27:38.903Z,3.13
2022-12-27T19:30:44.037Z,5.07
2022-12-27T19:34:05.215Z,7.07
2022-12-27T19:37:07.386Z,7.90
2022-12-27T19:40:13.495Z,8.10
2022-12-27T19:43:16.346Z,11.97
2022-12-27T19:46:19.324Z,12.75
2022-12-27T19:49:42.256Z,10.35
2022-12-27T19:52:47.490Z,11.18
2022-12-27T19:55:49.670Z,10.60
2022-12-27T19:58:51.815Z,26.48
2022-12-27T20:01:54.376Z,26.20
2022-12-27T20:04:56.813Z,16.52
2022-12-27T20:07:59.152Z,23.00
2022-12-27T20:11:04.181Z,27.60
2022-12-27T20:14:06.535Z,35.42
2022-12-27T20:17:08.867Z,25.38
2022-12-27T20:20:11.563Z,24.30
2022-12-27T20:23:14.019Z,28.70
2022-12-27T20:26:20.837Z,22.65
2022-12-27T20:29:23.334Z,21.70
2022-12-27T20:32:25.551Z,13.98
2022-12-27T20:35:27.652Z,10.70
2022-12-27T20:38:30.119Z,11.02
2022-12-27T20:41:32.296Z,13.93
2022-12-27T20:44:35.109Z,11.85
2022-12-27T20:47:37.324Z,15.68
2022-12-27T20:50:40.458Z,14.52
2022-12-27T20:53:42.736Z,15.47
2022-12-27T20:56:44.970Z,13.80
2022-12-27T20:59:47.954Z,16.17
2022-12-27T21:02:50.435Z,18.17
2022-12-27T21:05:52.704Z,27.37
2022-12-27T21:08:57.831Z,30.73
2022-12-27T21:12:00.300Z,32.85
2022-12-27T21:15:02.516Z,32.23
2022-12-27T21:18:05.278Z,33.80
2022-12-27T21:21:11.100Z,33.85
2022-12-27T21:24:13.392Z,34.65
2022-12-27T21:27:15.489Z,42.30
2022-12-27T21:30:17.704Z,40.92
2022-12-27T21:33:19.879Z,38.08
2022-12-27T21:36:26.189Z,37.53
2022-12-27T21:39:28.705Z,38.78
2022-12-27T21:42:30.880Z,32.78
2022-12-27T21:45:33.057Z,36.40
2022-12-27T21:48:37.805Z,34.33
2022-12-27T21:51:40.620Z,22.92
2022-12-27T21:54:42.785Z,12.80
2022-12-27T21:57:45.027Z,12.47
2022-12-27T22:00:47.185Z,11.27
2022-12-27T22:03:50.353Z,7.93
2022-12-27T22:06:52.584Z,7.22
2022-12-27T22:09:54.701Z,7.05
2022-12-27T22:12:57.110Z,9.65
2022-12-27T22:16:00.367Z,8.90
2022-12-27T22:19:04.845Z,7.13
2022-12-27T22:22:07.106Z,5.65
2022-12-27T22:25:09.476Z,4.85
2022-12-27T22:28:11.650Z,4.70
2022-12-27T22:31:18.186Z,5.63
2022-12-27T22:34:20.389Z,7.78
2022-12-27T22:37:22.472Z,6.70
2022-12-27T22:40:30.586Z,10.67
2022-12-27T22:43:33.879Z,14.38
2022-12-27T22:47:15.266Z,16.58
2022-12-27T22:49:58.577Z,11.73
2022-12-27T22:53:00.860Z,14.83
2022-12-27T22:56:03.195Z,14.15
2022-12-27T22:59:09.567Z,13.65
2022-12-27T23:02:12.097Z,18.50
2022-12-27T23:05:14.306Z,16.65
2022-12-27T23:08:16.448Z,20.77
2022-12-27T23:11:18.541Z,24.58
2022-12-27T23:14:21.031Z,20.53
2022-12-27T23:17:23.284Z,20.02
2022-12-27T23:20:25.606Z,13.93
2022-12-27T23:23:27.797Z,19.63
2022-12-27T23:26:29.951Z,17.35
2022-12-27T23:29:32.115Z,17.58
2022-12-27T23:32:34.275Z,17.27
2022-12-27T23:35:36.410Z,13.52
2022-12-27T23:38:39.185Z,10.50
2022-12-27T23:41:41.329Z,12.05
2022-12-27T23:44:43.405Z,11.57
2022-12-27T23:47:45.533Z,11.90
2022-12-27T23:50:47.791Z,13.63
2022-12-27T23:53:50.014Z,21.00
2022-12-27T23:56:52.420Z,21.65
2022-12-27T23:59:55.445Z,20.10
